Terminal Aerodrome Forecast
Issued by NWS

Current Version | Previous Version | Graphics & Text | Print | Product List | Glossary On
Versions: 1 2 3 4 5 6 7 8 9 10 11 12 13 14 15 16 17 18 19 20 21 22 23 24 25 26
148
FTUS41 KPBZ 291017 AAA
TAFHLG
TAF AMD
KHLG 291017Z 2910/3006 31003KT 1/4SM -DZ FG VV002
     FM291400 28005KT P6SM OVC008
     FM291900 29006KT P6SM BKN025=

USA.gov is the U.S. government's official web portal to all federal, state and local government web resources and services.